Time;durP1;ratioP1;P1;durP2;ratioP2;P2;SDS_P1;SDS_P2;PMS_P1;PMS_P2;Temp;Humidity;BMP_temperature;BMP_pressure;BME280_temperature;BME280_humidity;BME280_pressure;Samples;Min_cycle;Max_cycle;Signal;HPM_P1;HPM_P2
2024/01/20 15:52:31;;;;;;;68.85;23.70;;;-0.90;99.90;;;;;;5125931;27;20495;-50
2024/01/20 15:54:59;;;;;;;59.27;24.07;;;-1.00;99.90;;;;;;5126177;28;20520;-48
2024/01/20 15:57:24;;;;;;;69.43;26.20;;;-1.10;99.90;;;;;;5125800;28;20031;-49
2024/01/20 15:59:50;;;;;;;60.13;22.07;;;-1.10;99.90;;;;;;5125455;28;20394;-51
2024/01/20 16:02:16;;;;;;;68.82;25.63;;;-1.10;99.90;;;;;;5125964;28;20352;-48
2024/01/20 16:04:41;;;;;;;52.10;22.77;;;-1.10;99.90;;;;;;5125762;28;20435;-52
2024/01/20 16:07:09;;;;;;;51.22;23.50;;;-1.10;99.90;;;;;;5126120;28;20031;-51
2024/01/20 16:09:35;;;;;;;64.55;26.60;;;-1.20;99.90;;;;;;5125550;28;20027;-50
2024/01/20 16:12:04;;;;;;;63.05;24.55;;;-1.20;99.90;;;;;;5131169;27;20519;-51
2024/01/20 16:14:32;;;;;;;66.72;25.67;;;-1.20;99.90;;;;;;5125712;27;20427;-48
2024/01/20 16:16:58;;;;;;;64.32;25.23;;;-1.30;99.90;;;;;;5105356;27;20016;-52
2024/01/20 16:19:24;;;;;;;55.70;26.23;;;-1.30;99.90;;;;;;5134819;27;20401;-49
2024/01/20 16:21:51;;;;;;;58.00;24.58;;;-1.30;99.90;;;;;;5132972;27;20043;-49
2024/01/20 16:24:17;;;;;;;61.70;28.98;;;-1.40;99.90;;;;;;5131222;27;20059;-52
2024/01/20 16:26:43;;;;;;;59.00;25.70;;;-1.40;99.90;;;;;;5126628;27;20534;-52
2024/01/20 16:29:09;;;;;;;60.05;24.77;;;-1.40;99.90;;;;;;5128782;27;20023;-50
2024/01/20 16:31:35;;;;;;;59.42;25.05;;;-1.40;99.90;;;;;;5139956;27;20088;-53
2024/01/20 16:34:01;;;;;;;54.45;25.35;;;-1.40;99.90;;;;;;5123400;28;20446;-50
2024/01/20 16:36:26;;;;;;;61.63;27.95;;;-1.40;99.90;;;;;;5129166;27;20035;-50
2024/01/20 16:38:52;;;;;;;68.75;30.95;;;-1.40;99.90;;;;;;5135613;27;20061;-50
2024/01/20 16:41:18;;;;;;;56.20;26.33;;;-1.50;99.90;;;;;;5131746;27;20782;-52
2024/01/20 16:43:44;;;;;;;55.33;23.58;;;-1.50;99.90;;;;;;5131629;27;20026;-49
2024/01/20 16:46:09;;;;;;;63.13;25.67;;;-1.50;99.90;;;;;;5128951;27;20024;-53
2024/01/20 16:48:35;;;;;;;59.53;23.65;;;-1.50;99.90;;;;;;5126057;27;20031;-50
2024/01/20 16:51:03;;;;;;;53.38;21.50;;;-1.50;99.90;;;;;;5131238;27;20447;-49
2024/01/20 16:53:34;;;;;;;51.90;23.88;;;-1.50;99.90;;;;;;5135406;27;20534;-50
2024/01/20 16:55:59;;;;;;;58.00;26.00;;;-1.50;99.90;;;;;;5130108;27;20030;-52
2024/01/20 16:58:25;;;;;;;66.82;28.48;;;-1.60;99.90;;;;;;5132859;27;20039;-52
2024/01/20 17:00:51;;;;;;;65.03;25.05;;;-1.70;99.90;;;;;;5135191;27;20033;-53
2024/01/20 17:03:17;;;;;;;72.18;28.50;;;-1.60;99.90;;;;;;5129548;27;20084;-54
2024/01/20 17:05:43;;;;;;;68.22;27.50;;;-1.70;99.90;;;;;;5114631;27;20051;-51
2024/01/20 17:08:09;;;;;;;59.25;26.40;;;-1.70;99.90;;;;;;5115480;27;20051;-49
2024/01/20 17:10:34;;;;;;;58.92;24.60;;;-1.70;99.90;;;;;;5114212;27;20070;-52
2024/01/20 17:13:00;;;;;;;61.88;25.08;;;-1.70;99.90;;;;;;5115275;27;20437;-54
2024/01/20 17:15:27;;;;;;;67.13;28.35;;;-1.70;99.90;;;;;;5117435;27;20046;-51
2024/01/20 17:17:53;;;;;;;69.70;28.33;;;-1.70;99.90;;;;;;5117381;27;20461;-49
2024/01/20 17:20:19;;;;;;;60.75;26.35;;;-1.70;99.90;;;;;;5123141;27;20062;-50
2024/01/20 17:22:45;;;;;;;69.55;27.58;;;-1.80;99.90;;;;;;5125043;27;20026;-46
2024/01/20 17:25:11;;;;;;;63.90;27.27;;;-1.80;99.90;;;;;;5122350;27;20397;-49
2024/01/20 17:27:39;;;;;;;62.10;28.23;;;-1.80;99.90;;;;;;5112859;27;20092;-51
2024/01/20 17:30:06;;;;;;;71.40;27.58;;;-1.80;99.90;;;;;;5118096;27;20024;-52
2024/01/20 17:32:31;;;;;;;;;;;-1.90;99.90;;;;;;5118424;27;20077;-53
2024/01/20 17:34:57;;;;;;;66.13;27.58;;;-1.90;99.90;;;;;;5117350;27;19947;-52
2024/01/20 17:37:24;;;;;;;71.93;28.85;;;-1.80;99.90;;;;;;5118535;27;20050;-50
2024/01/20 17:39:49;;;;;;;69.00;30.13;;;-1.80;99.90;;;;;;5117366;27;20027;-52
2024/01/20 17:42:16;;;;;;;69.87;27.77;;;-1.80;99.90;;;;;;5118020;27;20032;-50
2024/01/20 17:44:41;;;;;;;65.50;25.60;;;-1.90;99.90;;;;;;5118140;27;20057;-48
2024/01/20 17:47:07;;;;;;;63.60;26.33;;;-1.90;99.90;;;;;;5117921;27;20142;-50
2024/01/20 17:49:33;;;;;;;66.88;26.50;;;-1.90;99.90;;;;;;5118174;27;20030;-52
2024/01/20 17:52:01;;;;;;;61.28;25.40;;;-1.90;99.90;;;;;;5116868;27;20073;-50
2024/01/20 17:54:31;;;;;;;58.45;26.60;;;-1.90;99.90;;;;;;5114084;27;20061;-51
2024/01/20 17:56:57;;;;;;;64.70;28.65;;;-1.90;99.90;;;;;;5118537;27;20100;-50
2024/01/20 17:59:23;;;;;;;67.38;27.30;;;-2.00;99.90;;;;;;5119263;27;20441;-50
2024/01/20 18:01:49;;;;;;;75.53;27.50;;;-2.00;99.90;;;;;;5119362;27;20031;-51
2024/01/20 18:04:14;;;;;;;63.03;27.63;;;-1.90;99.90;;;;;;5115340;27;20034;-49
2024/01/20 18:06:40;;;;;;;62.90;27.48;;;-2.00;99.90;;;;;;5095024;27;20031;-53
2024/01/20 18:09:06;;;;;;;75.05;29.98;;;-2.00;99.90;;;;;;5112431;27;20023;-48
2024/01/20 18:11:31;;;;;;;73.90;29.92;;;-2.10;99.90;;;;;;5118604;27;20031;-52
2024/01/20 18:13:58;;;;;;;72.15;29.05;;;-2.10;99.90;;;;;;5123148;27;20016;-50
2024/01/20 18:16:23;;;;;;;72.95;28.75;;;-2.10;99.90;;;;;;5122145;27;20035;-50
2024/01/20 18:18:49;;;;;;;79.47;31.63;;;-2.00;99.90;;;;;;5105682;27;20031;-50
2024/01/20 18:21:15;;;;;;;74.57;29.93;;;-2.10;99.90;;;;;;5121951;27;20035;-52
2024/01/20 18:23:41;;;;;;;74.43;31.67;;;-2.10;99.90;;;;;;5124398;27;20030;-51
2024/01/20 18:26:07;;;;;;;82.27;31.10;;;-2.20;99.90;;;;;;5122842;27;20052;-51
2024/01/20 18:28:32;;;;;;;71.95;31.50;;;-2.10;99.90;;;;;;5123679;27;20026;-52
2024/01/20 18:30:59;;;;;;;72.30;31.80;;;-2.20;99.90;;;;;;5116123;27;20393;-50
2024/01/20 18:33:25;;;;;;;74.22;30.30;;;-2.20;99.90;;;;;;5114922;27;20116;-50
2024/01/20 18:35:50;;;;;;;71.67;31.57;;;-2.20;99.90;;;;;;5121552;27;20467;-51
2024/01/20 18:38:16;;;;;;;74.47;32.78;;;-2.20;99.90;;;;;;5122226;27;20354;-51
2024/01/20 18:40:42;;;;;;;70.60;31.92;;;-2.20;99.90;;;;;;5123366;27;20023;-50
2024/01/20 18:43:07;;;;;;;75.63;34.57;;;-2.20;99.90;;;;;;5122979;27;20015;-55
2024/01/20 18:45:33;;;;;;;86.23;34.93;;;-2.20;99.90;;;;;;5122358;27;20081;-51
2024/01/20 18:47:59;;;;;;;90.43;40.55;;;-2.20;99.90;;;;;;5123224;27;20023;-51
2024/01/20 18:50:26;;;;;;;83.43;35.43;;;-2.20;99.90;;;;;;5122982;27;20043;-50
2024/01/20 18:52:52;;;;;;;91.13;39.20;;;-2.20;99.90;;;;;;5122787;27;20057;-53
2024/01/20 18:55:17;;;;;;;86.45;37.65;;;-2.30;99.90;;;;;;5120287;27;20085;-49
2024/01/20 18:57:43;;;;;;;87.37;36.17;;;-2.30;99.90;;;;;;5121046;27;20031;-48
2024/01/20 19:00:09;;;;;;;87.22;35.78;;;-2.30;99.90;;;;;;5120306;27;20028;-49
2024/01/20 19:02:35;;;;;;;87.57;36.30;;;-2.30;99.90;;;;;;5120393;27;20099;-51
2024/01/20 19:05:00;;;;;;;81.88;34.28;;;-2.20;99.90;;;;;;5095102;27;20482;-51
2024/01/20 19:07:26;;;;;;;75.33;34.07;;;-2.20;99.90;;;;;;5100829;27;20164;-52
2024/01/20 19:09:52;;;;;;;75.77;31.37;;;-2.30;99.90;;;;;;5113482;27;20019;-49
2024/01/20 19:12:17;;;;;;;82.88;35.92;;;-2.30;99.90;;;;;;5117802;27;20036;-51
2024/01/20 19:14:44;;;;;;;81.95;37.50;;;-2.30;99.90;;;;;;5115580;27;20039;-52
2024/01/20 19:17:14;;;;;;;86.55;38.30;;;-2.30;99.90;;;;;;5099903;28;20115;-52
2024/01/20 19:19:40;;;;;;;100.82;39.88;;;-2.30;99.90;;;;;;5116526;27;20039;-51
2024/01/20 19:22:05;;;;;;;104.57;41.30;;;-2.30;99.90;;;;;;5115889;27;20705;-52
2024/01/20 19:24:32;;;;;;;110.18;44.42;;;-2.30;99.90;;;;;;5113049;27;20031;-51
2024/01/20 19:26:59;;;;;;;101.60;43.47;;;-2.40;99.90;;;;;;5107042;28;20434;-51
2024/01/20 19:29:25;;;;;;;106.85;42.17;;;-2.50;99.90;;;;;;5106788;28;20035;-51
2024/01/20 19:31:51;;;;;;;103.20;43.03;;;-2.50;99.90;;;;;;5107399;28;20625;-52
2024/01/20 19:34:18;;;;;;;101.47;40.95;;;-2.50;99.90;;;;;;5064484;28;20028;-51
2024/01/20 19:36:46;;;;;;;97.18;40.47;;;-2.50;99.90;;;;;;5081885;28;20070;-53
2024/01/20 19:39:12;;;;;;;106.13;43.08;;;-2.50;99.90;;;;;;5082482;28;20045;-49
2024/01/20 19:41:38;;;;;;;94.13;41.15;;;-2.40;99.90;;;;;;5080584;28;20115;-52
2024/01/20 19:44:05;;;;;;;97.40;40.55;;;-2.30;99.90;;;;;;5081343;28;20050;-52
2024/01/20 19:46:31;;;;;;;95.05;43.22;;;-2.30;99.90;;;;;;5081250;28;20213;-52
2024/01/20 19:48:57;;;;;;;95.40;40.90;;;-2.30;99.90;;;;;;5079484;28;20040;-50
2024/01/20 19:51:23;;;;;;;99.25;41.75;;;-2.20;99.90;;;;;;5079177;28;20059;-49
2024/01/20 19:53:49;;;;;;;100.43;44.27;;;-2.20;99.90;;;;;;5081318;28;20110;-49
2024/01/20 19:56:15;;;;;;;96.38;42.85;;;-2.20;99.90;;;;;;5082299;28;22064;-52
2024/01/20 19:58:41;;;;;;;103.97;44.88;;;-2.10;99.90;;;;;;5081908;28;20039;-50
2024/01/20 20:01:07;;;;;;;101.60;43.28;;;-2.10;99.90;;;;;;5079515;28;20062;-51
2024/01/20 20:03:33;;;;;;;106.80;47.67;;;-2.10;99.90;;;;;;5081711;28;20035;-48
2024/01/20 20:05:59;;;;;;;96.78;43.05;;;-2.00;99.90;;;;;;5082139;28;20386;-53
2024/01/20 20:08:24;;;;;;;107.00;41.40;;;-2.10;99.90;;;;;;5081819;28;20035;-51
2024/01/20 20:10:51;;;;;;;97.60;42.50;;;-2.10;99.90;;;;;;5079643;28;20039;-49
2024/01/20 20:13:19;;;;;;;105.70;41.67;;;-2.00;99.90;;;;;;5081340;28;20433;-50
2024/01/20 20:15:46;;;;;;;101.13;38.75;;;-2.10;99.90;;;;;;5079526;28;20032;-51
2024/01/20 20:18:12;;;;;;;89.50;36.47;;;-2.00;99.90;;;;;;5081205;28;22360;-51
2024/01/20 20:20:38;;;;;;;93.55;37.67;;;-2.10;99.90;;;;;;5078652;28;20035;-51
2024/01/20 20:23:04;;;;;;;95.03;36.30;;;-2.10;99.90;;;;;;5082075;28;20100;-55
2024/01/20 20:25:30;;;;;;;86.60;36.35;;;-2.10;99.90;;;;;;5080019;28;20150;-51
2024/01/20 20:27:55;;;;;;;89.05;37.30;;;-2.10;99.90;;;;;;5062479;28;20047;-52
2024/01/20 20:30:21;;;;;;;91.45;37.15;;;-2.10;99.90;;;;;;5079217;28;22044;-48
2024/01/20 20:32:46;;;;;;;91.13;36.43;;;-2.10;99.90;;;;;;5080437;28;20546;-51
2024/01/20 20:35:13;;;;;;;93.65;37.75;;;-2.10;99.90;;;;;;5080068;28;20028;-52
2024/01/20 20:37:39;;;;;;;;;;;-2.00;99.90;;;;;;5082814;28;20031;-50
2024/01/20 20:40:07;;;;;;;98.15;36.80;;;-2.00;99.90;;;;;;5084201;28;19980;-48
2024/01/20 20:42:34;;;;;;;106.80;41.22;;;-2.00;99.90;;;;;;5082144;28;20032;-49
2024/01/20 20:44:59;;;;;;;95.88;38.65;;;-2.00;99.90;;;;;;5084288;28;20024;-48
2024/01/20 20:47:25;;;;;;;95.43;37.03;;;-1.90;99.90;;;;;;5083457;28;20019;-49
2024/01/20 20:49:51;;;;;;;73.72;32.22;;;-1.90;99.90;;;;;;5083859;28;20028;-52
2024/01/20 20:52:17;;;;;;;90.00;36.58;;;-1.80;99.90;;;;;;5079772;28;20174;-52
2024/01/20 20:54:43;;;;;;;82.80;33.20;;;-1.80;99.90;;;;;;5082968;28;20176;-51
2024/01/20 20:57:08;;;;;;;75.72;35.10;;;-1.80;99.90;;;;;;5083748;28;20031;-51
2024/01/20 20:59:38;;;;;;;82.03;35.20;;;-1.80;99.90;;;;;;5086477;28;20432;-47
2024/01/20 21:02:06;;;;;;;84.95;34.65;;;-1.70;99.90;;;;;;5072487;28;20039;-51
2024/01/20 21:04:32;;;;;;;74.63;31.83;;;-1.70;99.90;;;;;;5098339;28;20030;-53
2024/01/20 21:06:59;;;;;;;81.50;32.80;;;-1.80;99.90;;;;;;5093929;28;20031;-53
2024/01/20 21:09:26;;;;;;;80.97;32.88;;;-1.70;99.90;;;;;;5084365;28;20036;-47
2024/01/20 21:11:51;;;;;;;75.13;30.98;;;-1.70;99.90;;;;;;5087397;28;20070;-49
2024/01/20 21:14:17;;;;;;;74.70;31.77;;;-1.70;99.90;;;;;;5097196;28;20032;-47
2024/01/20 21:16:43;;;;;;;72.50;30.93;;;-1.70;99.90;;;;;;5094159;28;20560;-51
2024/01/20 21:19:09;;;;;;;74.20;31.02;;;-1.70;99.90;;;;;;5094259;28;20107;-52
2024/01/20 21:21:35;;;;;;;75.38;29.73;;;-1.60;99.90;;;;;;5090721;28;20027;-51
2024/01/20 21:24:02;;;;;;;65.10;29.20;;;-1.60;99.90;;;;;;5092916;28;20023;-52
2024/01/20 21:26:29;;;;;;;70.05;28.65;;;-1.60;99.90;;;;;;5093693;28;21491;-53
2024/01/20 21:28:55;;;;;;;;;;;-1.60;99.90;;;;;;5093100;28;20042;-49
2024/01/20 21:31:20;;;;;;;68.18;24.92;;;-1.50;99.90;;;;;;5087505;28;19920;-49
2024/01/20 21:33:46;;;;;;;70.10;27.85;;;-1.50;99.90;;;;;;5089378;28;20035;-50
2024/01/20 21:36:12;;;;;;;73.00;26.67;;;-1.50;99.90;;;;;;5088196;28;20062;-51
2024/01/20 21:38:38;;;;;;;64.95;26.67;;;-1.40;99.90;;;;;;5087670;28;20367;-51
2024/01/20 21:41:05;;;;;;;68.45;28.17;;;-1.40;99.90;;;;;;5085382;28;20093;-50
2024/01/20 21:43:31;;;;;;;69.20;27.63;;;-1.20;99.90;;;;;;5089393;28;20448;-51
2024/01/20 21:45:57;;;;;;;68.80;28.00;;;-1.20;99.90;;;;;;5089533;28;20047;-51
2024/01/20 21:48:23;;;;;;;73.97;28.48;;;-1.20;99.90;;;;;;5090783;28;20054;-51
2024/01/20 21:50:48;;;;;;;70.45;26.33;;;-1.20;99.90;;;;;;5084305;28;20056;-49
2024/01/20 21:53:14;;;;;;;68.32;28.17;;;-1.20;99.90;;;;;;5089867;28;20066;-53
2024/01/20 21:55:40;;;;;;;59.83;25.13;;;-1.20;99.90;;;;;;5089813;28;20028;-51
2024/01/20 21:58:06;;;;;;;67.97;27.10;;;-1.10;99.90;;;;;;5089737;28;20109;-51
2024/01/20 22:00:31;;;;;;;64.45;27.50;;;-1.10;99.90;;;;;;5084677;28;20046;-50
2024/01/20 22:02:57;;;;;;;60.47;25.95;;;-1.10;99.90;;;;;;5088301;28;21686;-48
2024/01/20 22:05:23;;;;;;;60.25;24.13;;;-1.10;99.90;;;;;;5088235;28;20090;-53
2024/01/20 22:07:50;;;;;;;56.97;22.27;;;-1.10;99.90;;;;;;5085970;28;20036;-51
2024/01/20 22:10:16;;;;;;;57.17;23.48;;;-1.00;99.90;;;;;;5063411;28;20035;-50
2024/01/20 22:12:42;;;;;;;63.28;24.13;;;-1.00;99.90;;;;;;5078706;28;20081;-50
2024/01/20 22:15:08;;;;;;;59.25;23.85;;;-1.00;99.90;;;;;;5064142;28;20032;-49
2024/01/20 22:17:34;;;;;;;61.72;25.63;;;-1.00;99.90;;;;;;5082573;28;20028;-50
2024/01/20 22:20:00;;;;;;;55.35;22.90;;;-0.90;99.90;;;;;;5082099;28;20046;-51
2024/01/20 22:22:25;;;;;;;53.42;25.55;;;-0.90;99.90;;;;;;5077992;28;20040;-48
2024/01/20 22:24:51;;;;;;;53.72;21.95;;;-0.90;99.90;;;;;;5083597;28;20442;-53
2024/01/20 22:27:17;;;;;;;52.92;22.23;;;-0.90;99.90;;;;;;5086669;28;21697;-52
2024/01/20 22:29:42;;;;;;;52.25;22.40;;;-0.90;99.90;;;;;;5086942;28;20023;-48
2024/01/20 22:32:08;;;;;;;57.40;25.10;;;-0.90;99.90;;;;;;5082266;28;20043;-51
2024/01/20 22:34:34;;;;;;;61.38;23.60;;;-0.90;99.90;;;;;;5065582;28;20034;-50
2024/01/20 22:37:00;;;;;;;69.85;26.80;;;-0.90;99.90;;;;;;5082340;28;20020;-53
2024/01/20 22:39:26;;;;;;;57.00;24.48;;;-0.90;99.90;;;;;;5081291;28;20020;-50
2024/01/20 22:41:52;;;;;;;64.00;24.15;;;-0.90;99.90;;;;;;5075540;28;20113;-50
2024/01/20 22:44:18;;;;;;;60.67;24.90;;;-0.90;99.90;;;;;;5062806;28;20055;-48
